Tunnel City, Wisconsin
Current Conditions -  °F | °C
As of 9:15 PM on Saturday 20 Dec 2014 (Local Time) from KCMY Reporting Station
Haze Haze  
Wind Chill: 26°   Ceiling: 2900
Heat Index: 31°   Visibility: 5mi
Dew Point: 27°   Wind: 5mph
Humidity: 85%   Direction: 150°SSE
Pressure: 30.18"   Gusts: NA
Location:  44.01°N, 90.57°W
Report Text: KCMY 210315Z AUTO 15004KT 5SM HZ OVC029 M01/M03 A3018 RMK AO2 T10071030
Loading
Personal Weather Stations






























Interactive Weather Map New forecast layout! Learn more

10-Day Weather Forecast

Advertisements
Track Severe Weather on mobile